Time;durP1;ratioP1;P1;durP2;ratioP2;P2;SDS_P1;SDS_P2;PMS_P1;PMS_P2;Temp;Humidity;BMP_temperature;BMP_pressure;BME280_temperature;BME280_humidity;BME280_pressure;Samples;Min_cycle;Max_cycle;Signal;HPM_P1;HPM_P2
2021/09/10 00:01:38;;;;;;;4.80;4.50;;;15.00;99.90;;;;;;5056130;28;20220;-51
2021/09/10 00:04:06;;;;;;;4.93;4.13;;;14.90;99.90;;;;;;5056970;28;20434;-50
2021/09/10 00:06:33;;;;;;;4.45;4.07;;;14.90;99.90;;;;;;5060172;28;20207;-51
2021/09/10 00:09:00;;;;;;;4.20;3.83;;;14.90;99.90;;;;;;5052765;28;20265;-52
2021/09/10 00:11:27;;;;;;;4.80;4.40;;;14.80;99.90;;;;;;5055414;28;20239;-55
2021/09/10 00:13:55;;;;;;;5.20;4.80;;;14.70;99.90;;;;;;5059623;28;20204;-54
2021/09/10 00:16:22;;;;;;;4.50;3.95;;;14.70;99.90;;;;;;5057988;28;20238;-45
2021/09/10 00:18:49;;;;;;;6.40;4.18;;;14.90;99.90;;;;;;5055677;28;20231;-52
2021/09/10 00:21:16;;;;;;;4.88;4.40;;;14.80;99.90;;;;;;5059975;28;20458;-52
2021/09/10 00:23:44;;;;;;;4.50;4.10;;;14.70;99.90;;;;;;5059780;28;20244;-49
2021/09/10 00:26:11;;;;;;;4.78;4.30;;;14.80;99.90;;;;;;5060027;28;20196;-50
2021/09/10 00:28:38;;;;;;;4.85;4.35;;;14.80;99.90;;;;;;5060191;28;20197;-49
2021/09/10 00:31:05;;;;;;;4.60;4.20;;;14.90;99.90;;;;;;5058175;28;20242;-53
2021/09/10 00:33:34;;;;;;;4.53;4.18;;;14.90;99.90;;;;;;5061903;28;20270;-53
2021/09/10 00:36:02;;;;;;;4.70;4.40;;;15.00;99.90;;;;;;5057244;28;20294;-52
2021/09/10 00:38:30;;;;;;;5.25;4.55;;;14.90;99.90;;;;;;5059993;28;20292;-49
2021/09/10 00:40:58;;;;;;;4.53;4.07;;;14.80;99.90;;;;;;5057718;28;20216;-55
2021/09/10 00:43:26;;;;;;;4.28;3.97;;;14.70;99.90;;;;;;5059667;28;20199;-50
2021/09/10 00:45:57;;;;;;;4.25;3.95;;;14.70;99.90;;;;;;5059553;28;20197;-50
2021/09/10 00:48:25;;;;;;;4.35;4.05;;;14.70;99.90;;;;;;5059903;28;20517;-54
2021/09/10 00:50:53;;;;;;;4.88;4.43;;;14.70;99.90;;;;;;5059451;28;20245;-52
2021/09/10 00:53:22;;;;;;;4.82;4.43;;;14.70;99.90;;;;;;5058976;28;20222;-52
2021/09/10 00:55:49;;;;;;;6.70;5.05;;;14.70;99.90;;;;;;5053238;28;20441;-53
2021/09/10 00:58:17;;;;;;;4.32;4.03;;;14.70;99.90;;;;;;5057798;28;20253;-49
2021/09/10 01:00:45;;;;;;;4.90;4.43;;;14.80;99.90;;;;;;5031900;28;20262;-52
2021/09/10 01:03:13;;;;;;;5.28;4.55;;;14.60;99.90;;;;;;5055266;28;20435;-51
2021/09/10 01:05:42;;;;;;;4.90;4.53;;;14.60;99.90;;;;;;5059308;28;20222;-52
2021/09/10 01:08:11;;;;;;;4.35;3.95;;;14.70;99.90;;;;;;5057667;28;20498;-52
2021/09/10 01:10:40;;;;;;;5.18;4.60;;;14.50;99.90;;;;;;5058464;28;20599;-54
2021/09/10 01:13:08;;;;;;;5.25;4.75;;;14.40;99.90;;;;;;5059355;28;20262;-54
2021/09/10 01:15:35;;;;;;;3.90;3.70;;;14.40;99.90;;;;;;5058341;28;20241;-53
2021/09/10 01:18:03;;;;;;;4.45;4.07;;;14.40;99.90;;;;;;5052968;28;20206;-49
2021/09/10 01:20:30;;;;;;;4.45;4.15;;;14.30;99.90;;;;;;5053555;28;20231;-50
2021/09/10 01:22:57;;;;;;;4.20;3.90;;;14.20;99.90;;;;;;5058796;28;20203;-49
2021/09/10 01:25:25;;;;;;;3.80;3.42;;;14.20;99.90;;;;;;5055504;28;20494;-50
2021/09/10 01:27:55;;;;;;;4.20;3.85;;;14.20;99.90;;;;;;5058774;28;20195;-46
2021/09/10 01:30:26;;;;;;;4.20;3.90;;;14.10;99.90;;;;;;5052453;28;20546;-50
2021/09/10 01:32:55;;;;;;;3.60;3.40;;;14.10;99.90;;;;;;5052917;28;20403;-51
2021/09/10 01:35:22;;;;;;;4.32;4.00;;;14.20;99.90;;;;;;5050726;28;20238;-49
2021/09/10 01:37:49;;;;;;;4.55;4.15;;;14.20;99.90;;;;;;5057848;28;20199;-51
2021/09/10 01:40:17;;;;;;;3.90;3.60;;;14.20;99.90;;;;;;5058255;28;20261;-48
2021/09/10 01:42:44;;;;;;;5.00;4.57;;;14.20;99.90;;;;;;5050580;28;20199;-50
2021/09/10 01:45:13;;;;;;;5.05;4.55;;;14.30;99.90;;;;;;5058232;28;20474;-53
2021/09/10 01:47:41;;;;;;;5.57;4.55;;;14.30;99.90;;;;;;5059638;28;20199;-54
2021/09/10 01:50:11;;;;;;;3.40;3.13;;;14.20;99.90;;;;;;5059521;28;20238;-49
2021/09/10 01:52:38;;;;;;;5.63;3.78;;;14.20;99.90;;;;;;5059582;28;20529;-53
2021/09/10 01:55:08;;;;;;;3.50;3.20;;;14.20;99.90;;;;;;5053101;28;20273;-55
2021/09/10 01:57:36;;;;;;;5.35;4.38;;;14.20;99.90;;;;;;5060117;28;20203;-49
2021/09/10 02:00:04;;;;;;;4.07;3.70;;;14.20;99.90;;;;;;5057641;28;20247;-49
2021/09/10 02:02:32;;;;;;;4.13;3.83;;;14.10;99.90;;;;;;5058171;28;20222;-53
2021/09/10 02:04:59;;;;;;;4.40;3.95;;;14.10;99.90;;;;;;5052471;28;20214;-51
2021/09/10 02:07:27;;;;;;;3.78;3.10;;;14.00;99.90;;;;;;5059097;28;20204;-52
2021/09/10 02:09:55;;;;;;;3.33;3.10;;;14.00;99.90;;;;;;5057478;28;20242;-50
2021/09/10 02:12:22;;;;;;;4.25;3.85;;;14.00;99.90;;;;;;5057015;28;20238;-49
2021/09/10 02:14:50;;;;;;;4.40;3.80;;;14.00;99.90;;;;;;5054864;28;20325;-48
2021/09/10 02:17:17;;;;;;;3.65;3.42;;;14.10;99.90;;;;;;5053691;28;20372;-51
2021/09/10 02:19:44;;;;;;;3.42;3.13;;;14.10;99.90;;;;;;5057237;28;20471;-53
2021/09/10 02:22:11;;;;;;;3.58;3.33;;;14.10;99.90;;;;;;5055209;28;20215;-50
2021/09/10 02:24:38;;;;;;;4.65;3.05;;;14.00;99.90;;;;;;5057525;28;20214;-52
2021/09/10 02:27:06;;;;;;;4.97;4.57;;;14.10;99.90;;;;;;5055317;28;20199;-50
2021/09/10 02:29:33;;;;;;;3.70;3.40;;;14.00;99.90;;;;;;5057189;28;20471;-50
2021/09/10 02:32:00;;;;;;;4.50;4.10;;;14.00;99.90;;;;;;5056405;28;20235;-49
2021/09/10 02:34:28;;;;;;;3.47;3.17;;;13.90;99.90;;;;;;5058303;28;20271;-54
2021/09/10 02:36:55;;;;;;;5.57;3.20;;;13.90;99.90;;;;;;5057086;28;20237;-50
2021/09/10 02:39:23;;;;;;;4.13;3.70;;;13.90;99.90;;;;;;5051443;28;20227;-50
2021/09/10 02:41:50;;;;;;;4.07;3.75;;;13.80;99.90;;;;;;5056960;28;20242;-51
2021/09/10 02:44:17;;;;;;;3.90;3.38;;;13.80;99.90;;;;;;5057900;28;20208;-51
2021/09/10 02:46:44;;;;;;;3.88;3.40;;;13.80;99.90;;;;;;5046481;28;20556;-49
2021/09/10 02:49:12;;;;;;;3.78;3.47;;;13.80;99.90;;;;;;5050827;28;20286;-50
2021/09/10 02:51:39;;;;;;;4.28;3.97;;;13.90;99.90;;;;;;5047765;28;20231;-51
2021/09/10 02:54:06;;;;;;;4.30;3.45;;;13.80;99.90;;;;;;5054809;28;20211;-50
2021/09/10 02:56:34;;;;;;;7.80;3.05;;;13.80;99.90;;;;;;5056715;28;20334;-49
2021/09/10 02:59:02;;;;;;;4.22;3.72;;;13.80;99.90;;;;;;5056522;28;20223;-50
2021/09/10 03:01:29;;;;;;;3.92;3.53;;;13.90;99.90;;;;;;5057374;28;20265;-51
2021/09/10 03:03:56;;;;;;;3.90;3.50;;;13.90;99.90;;;;;;5055899;28;20218;-51
2021/09/10 03:06:23;;;;;;;7.30;3.97;;;13.80;99.90;;;;;;5057520;28;20199;-50
2021/09/10 03:08:51;;;;;;;3.80;3.13;;;13.80;99.90;;;;;;5057356;28;20242;-51
2021/09/10 03:11:18;;;;;;;3.97;3.67;;;13.70;99.90;;;;;;5058841;28;20231;-52
2021/09/10 03:13:45;;;;;;;3.90;3.60;;;13.80;99.90;;;;;;5058645;28;20249;-52
2021/09/10 03:16:12;;;;;;;4.00;3.70;;;13.80;99.90;;;;;;5057435;28;20439;-51
2021/09/10 03:18:40;;;;;;;4.25;3.85;;;13.80;99.90;;;;;;5056855;28;20402;-51
2021/09/10 03:21:07;;;;;;;5.75;4.55;;;13.70;99.90;;;;;;5051214;28;20580;-53
2021/09/10 03:23:34;;;;;;;4.05;3.72;;;13.60;99.90;;;;;;5056729;28;20199;-50
2021/09/10 03:26:01;;;;;;;4.18;3.78;;;13.50;99.90;;;;;;5057044;28;20213;-48
2021/09/10 03:28:28;;;;;;;6.40;3.75;;;13.40;99.90;;;;;;5057462;28;20226;-49
2021/09/10 03:30:56;;;;;;;4.38;3.95;;;13.50;99.90;;;;;;5056816;28;20223;-48
2021/09/10 03:33:23;;;;;;;3.58;3.25;;;13.40;99.90;;;;;;5056887;28;20359;-49
2021/09/10 03:35:50;;;;;;;5.20;4.80;;;13.50;99.90;;;;;;5057273;28;20242;-50
2021/09/10 03:38:17;;;;;;;5.22;3.92;;;13.40;99.90;;;;;;5057542;28;20199;-51
2021/09/10 03:40:45;;;;;;;4.35;3.72;;;13.40;99.90;;;;;;5060579;28;20281;-50
2021/09/10 03:43:12;;;;;;;3.13;2.90;;;13.40;99.90;;;;;;5060741;28;20196;-50
2021/09/10 03:45:39;;;;;;;4.57;4.13;;;13.40;99.90;;;;;;5061050;28;20203;-51
2021/09/10 03:48:06;;;;;;;4.22;3.92;;;13.40;99.90;;;;;;5060418;28;20199;-49
2021/09/10 03:50:34;;;;;;;4.35;3.95;;;13.40;99.90;;;;;;5054734;28;20227;-53
2021/09/10 03:53:01;;;;;;;3.80;3.60;;;13.30;99.90;;;;;;5060063;28;20253;-48
2021/09/10 03:55:28;;;;;;;3.22;2.97;;;13.30;99.90;;;;;;5057773;28;20204;-50
2021/09/10 03:57:55;;;;;;;3.85;3.45;;;13.30;99.90;;;;;;5060331;28;20203;-56
2021/09/10 04:00:23;;;;;;;6.05;4.10;;;13.30;99.90;;;;;;5060691;28;20223;-53
2021/09/10 04:02:50;;;;;;;3.40;3.20;;;13.30;99.90;;;;;;5060263;28;20214;-50
2021/09/10 04:05:17;;;;;;;3.90;3.60;;;13.30;99.90;;;;;;5060848;28;20425;-53
2021/09/10 04:07:44;;;;;;;4.68;3.97;;;13.40;99.90;;;;;;5061037;28;20215;-53
2021/09/10 04:10:11;;;;;;;4.88;4.40;;;13.30;99.90;;;;;;5060461;28;20207;-52
2021/09/10 04:12:38;;;;;;;4.43;4.00;;;13.20;99.90;;;;;;5060695;28;20439;-52
2021/09/10 04:15:06;;;;;;;4.93;4.35;;;13.30;99.90;;;;;;5060130;28;20248;-53
2021/09/10 04:17:33;;;;;;;5.00;4.57;;;13.20;99.90;;;;;;5060904;28;20221;-54
2021/09/10 04:20:00;;;;;;;3.35;3.13;;;13.40;99.90;;;;;;5060160;28;20429;-50
2021/09/10 04:22:28;;;;;;;6.70;3.80;;;13.40;99.90;;;;;;5053692;28;20302;-54
2021/09/10 04:24:55;;;;;;;4.43;3.95;;;13.40;99.90;;;;;;5060113;28;20200;-49
2021/09/10 04:27:22;;;;;;;5.00;4.60;;;13.40;99.90;;;;;;5055551;28;20284;-52
2021/09/10 04:29:48;;;;;;;8.20;4.22;;;13.40;99.90;;;;;;5060085;28;20226;-50
2021/09/10 04:32:16;;;;;;;3.67;3.38;;;13.30;99.90;;;;;;5059860;28;20510;-52
2021/09/10 04:34:43;;;;;;;3.80;3.50;;;13.30;99.90;;;;;;5060092;28;20203;-51
2021/09/10 04:37:10;;;;;;;4.45;4.07;;;13.30;99.90;;;;;;5059961;28;20225;-52
2021/09/10 04:39:37;;;;;;;4.07;3.70;;;13.20;99.90;;;;;;5059851;28;20227;-52
2021/09/10 04:42:05;;;;;;;4.47;4.10;;;13.30;99.90;;;;;;5060118;28;20526;-55
2021/09/10 04:44:32;;;;;;;4.00;3.70;;;13.30;99.90;;;;;;5055086;28;20549;-54
2021/09/10 04:46:59;;;;;;;4.72;4.32;;;13.30;99.90;;;;;;5057043;28;20259;-55
2021/09/10 04:49:26;;;;;;;5.20;4.32;;;13.30;99.90;;;;;;5059731;28;20196;-54
2021/09/10 04:51:54;;;;;;;3.92;3.70;;;13.40;99.90;;;;;;5058746;28;20538;-56
2021/09/10 04:54:21;;;;;;;4.30;4.00;;;13.40;99.90;;;;;;5037477;28;20226;-53
2021/09/10 04:56:48;;;;;;;4.68;3.75;;;13.30;99.90;;;;;;5052274;28;20200;-53
2021/09/10 04:59:15;;;;;;;9.10;4.05;;;13.40;99.90;;;;;;5059277;28;20218;-50
2021/09/10 05:01:43;;;;;;;4.72;4.38;;;13.50;99.90;;;;;;5059386;28;20220;-54
2021/09/10 05:04:11;;;;;;;4.10;3.80;;;13.60;99.90;;;;;;5059878;28;20208;-49
2021/09/10 05:06:38;;;;;;;5.32;3.95;;;13.60;99.90;;;;;;5059728;28;20325;-53
2021/09/10 05:09:05;;;;;;;4.55;4.25;;;13.80;99.90;;;;;;5059679;28;20510;-52
2021/09/10 05:11:32;;;;;;;4.43;4.13;;;13.90;99.90;;;;;;5059742;28;20433;-50
2021/09/10 05:14:00;;;;;;;4.70;4.20;;;13.90;99.90;;;;;;5053661;28;20207;-55
2021/09/10 05:16:27;;;;;;;4.28;3.97;;;14.10;99.90;;;;;;5059634;28;20200;-49
2021/09/10 05:18:54;;;;;;;5.05;4.70;;;14.30;99.90;;;;;;5059033;28;20263;-50
2021/09/10 05:21:21;;;;;;;4.70;4.30;;;14.30;99.90;;;;;;5059507;28;20274;-50
2021/09/10 05:23:49;;;;;;;6.72;4.45;;;14.30;99.90;;;;;;5059010;28;20196;-56
2021/09/10 05:26:16;;;;;;;4.82;4.43;;;14.40;99.90;;;;;;5052914;28;20211;-53
2021/09/10 05:28:45;;;;;;;10.10;8.02;;;14.60;99.90;;;;;;5058721;28;20350;-54
2021/09/10 05:31:12;;;;;;;12.07;9.02;;;14.80;99.90;;;;;;5053161;28;20390;-54
2021/09/10 05:33:40;;;;;;;6.65;5.55;;;15.00;99.90;;;;;;5058656;28;20318;-52
2021/09/10 05:36:07;;;;;;;7.13;6.07;;;15.00;99.90;;;;;;5058795;28;20460;-49
2021/09/10 05:38:35;;;;;;;4.85;4.50;;;15.20;99.90;;;;;;5058576;28;20456;-54
2021/09/10 05:41:02;;;;;;;5.53;5.00;;;15.50;99.90;;;;;;5058347;28;20272;-52
2021/09/10 05:43:29;;;;;;;4.97;4.00;;;15.60;99.90;;;;;;5058646;28;20469;-52
2021/09/10 05:45:57;;;;;;;5.27;4.80;;;15.70;99.90;;;;;;5058238;28;20461;-51
2021/09/10 05:48:24;;;;;;;4.67;4.17;;;15.90;99.90;;;;;;5059201;28;20434;-54
2021/09/10 05:50:51;;;;;;;4.90;4.50;;;16.20;99.90;;;;;;5059083;28;20467;-55
2021/09/10 05:53:19;;;;;;;5.23;4.90;;;16.60;99.90;;;;;;5052227;28;20422;-53
2021/09/10 05:55:46;;;;;;;5.30;4.90;;;17.00;99.90;;;;;;5030818;28;20435;-55
2021/09/10 05:58:13;;;;;;;5.30;4.80;;;17.50;99.90;;;;;;5056994;28;20432;-50
2021/09/10 06:00:40;;;;;;;6.30;5.70;;;18.00;99.90;;;;;;5059221;28;20472;-48
2021/09/10 06:03:08;;;;;;;6.27;5.77;;;18.90;99.90;;;;;;5057694;28;20435;-52
2021/09/10 06:05:35;;;;;;;6.23;5.50;;;19.90;99.90;;;;;;5058995;28;20415;-57
2021/09/10 06:08:03;;;;;;;6.07;5.57;;;20.90;99.90;;;;;;5058885;28;20478;-54
2021/09/10 06:10:30;;;;;;;6.40;6.00;;;21.80;99.90;;;;;;5059127;28;20472;-53
2021/09/10 06:12:58;;;;;;;6.10;5.80;;;22.00;99.90;;;;;;5058679;28;20467;-55
2021/09/10 06:15:25;;;;;;;7.50;6.80;;;22.30;99.80;;;;;;5059020;28;20441;-55
2021/09/10 06:17:52;;;;;;;7.63;7.03;;;23.00;98.20;;;;;;5059537;28;20502;-55
2021/09/10 06:20:19;;;;;;;7.30;6.80;;;23.80;96.90;;;;;;5054936;28;20484;-54
2021/09/10 06:22:47;;;;;;;7.40;6.90;;;24.10;95.00;;;;;;5057697;28;20794;-51
2021/09/10 06:25:14;;;;;;;7.63;7.13;;;24.80;93.70;;;;;;5059109;28;20453;-54
2021/09/10 06:27:42;;;;;;;7.23;6.80;;;25.50;92.80;;;;;;5059570;28;20456;-53
2021/09/10 06:30:10;;;;;;;8.63;8.13;;;26.40;90.90;;;;;;5059135;28;20628;-55
2021/09/10 06:32:37;;;;;;;8.53;7.93;;;27.50;88.00;;;;;;5058874;28;20437;-49
2021/09/10 06:35:06;;;;;;;8.10;7.70;;;28.00;85.50;;;;;;5058521;28;20812;-55
2021/09/10 06:37:33;;;;;;;8.60;8.10;;;29.30;81.90;;;;;;5059201;28;20436;-56
2021/09/10 06:40:02;;;;;;;8.73;8.23;;;30.40;77.30;;;;;;5058781;28;20832;-54
2021/09/10 06:42:29;;;;;;;8.63;8.20;;;31.30;73.70;;;;;;5051250;28;20437;-53
2021/09/10 06:44:57;;;;;;;8.10;7.60;;;31.70;71.20;;;;;;5058313;28;20764;-55
2021/09/10 06:47:24;;;;;;;8.13;7.50;;;32.10;70.00;;;;;;5058257;28;20569;-56
2021/09/10 06:49:51;;;;;;;8.90;8.20;;;31.80;67.90;;;;;;5057613;28;20436;-54
2021/09/10 06:52:18;;;;;;;9.23;8.63;;;32.30;69.60;;;;;;5058890;28;20535;-53
2021/09/10 06:54:46;;;;;;;10.23;9.67;;;33.50;64.30;;;;;;5044945;28;20437;-53
2021/09/10 06:57:13;;;;;;;8.73;8.33;;;33.00;64.70;;;;;;5045597;28;20436;-53
2021/09/10 06:59:41;;;;;;;9.27;8.50;;;32.70;64.40;;;;;;5045242;28;20786;-53
2021/09/10 07:02:08;;;;;;;9.00;8.60;;;33.10;64.20;;;;;;5056523;28;20518;-54
2021/09/10 07:04:36;;;;;;;9.10;8.57;;;33.80;61.80;;;;;;5058768;28;20441;-52
2021/09/10 07:07:03;;;;;;;9.43;8.93;;;33.90;60.90;;;;;;5058851;28;20428;-51
2021/09/10 07:09:31;;;;;;;7.53;7.20;;;33.50;62.50;;;;;;5059071;28;20635;-51
2021/09/10 07:11:58;;;;;;;9.53;9.10;;;33.70;62.10;;;;;;5057653;28;20464;-57
2021/09/10 07:14:25;;;;;;;8.77;8.37;;;34.00;61.10;;;;;;5060629;28;20447;-53
2021/09/10 07:16:53;;;;;;;9.70;8.97;;;34.80;59.60;;;;;;5061867;28;20832;-56
2021/09/10 07:19:20;;;;;;;8.50;8.00;;;35.00;58.90;;;;;;5061854;28;20452;-55
2021/09/10 07:21:47;;;;;;;9.83;9.00;;;34.50;59.00;;;;;;5062177;28;20929;-56
2021/09/10 07:24:14;;;;;;;8.87;8.47;;;34.80;59.20;;;;;;5062315;28;20440;-54
2021/09/10 07:26:42;;;;;;;10.63;9.83;;;34.80;59.00;;;;;;5063259;28;20573;-55
2021/09/10 07:29:09;;;;;;;9.50;9.00;;;35.70;58.40;;;;;;5062667;28;20436;-54
2021/09/10 07:31:36;;;;;;;10.03;9.50;;;36.70;56.30;;;;;;5062345;28;20536;-57
2021/09/10 07:34:05;;;;;;;10.23;9.60;;;36.50;56.60;;;;;;5055561;28;20687;-57
2021/09/10 07:36:33;;;;;;;10.80;10.10;;;37.30;55.40;;;;;;5061654;28;20432;-52
2021/09/10 07:39:00;;;;;;;11.20;10.43;;;36.50;56.00;;;;;;5061827;28;20444;-54
2021/09/10 07:41:27;;;;;;;9.87;9.47;;;36.50;55.90;;;;;;5058018;28;20480;-55
2021/09/10 07:43:55;;;;;;;11.03;10.33;;;36.20;55.80;;;;;;5048176;28;20479;-54
2021/09/10 07:46:22;;;;;;;9.77;9.27;;;36.40;56.00;;;;;;5053642;28;20441;-50
2021/09/10 07:48:49;;;;;;;9.20;8.80;;;35.80;56.20;;;;;;5061422;28;20504;-53
2021/09/10 07:51:17;;;;;;;10.13;9.70;;;36.30;55.60;;;;;;5046673;28;20452;-54
2021/09/10 07:53:44;;;;;;;9.20;8.57;;;36.80;54.70;;;;;;5047689;28;20437;-57
2021/09/10 07:56:11;;;;;;;8.80;8.50;;;36.50;53.80;;;;;;5054212;28;20440;-55
2021/09/10 07:58:39;;;;;;;9.10;8.70;;;36.50;54.50;;;;;;5061053;28;20437;-53
2021/09/10 08:01:06;;;;;;;9.90;9.40;;;36.20;52.90;;;;;;5061027;28;20484;-54
2021/09/10 08:03:34;;;;;;;9.30;8.90;;;35.40;53.70;;;;;;5061205;28;20498;-50
2021/09/10 08:06:03;;;;;;;8.30;7.90;;;35.40;53.60;;;;;;5061674;28;20626;-55
2021/09/10 08:08:31;;;;;;;8.30;8.00;;;36.00;52.30;;;;;;5060826;28;20763;-56
2021/09/10 08:10:58;;;;;;;10.47;9.70;;;36.20;52.30;;;;;;5060755;28;20526;-51
2021/09/10 08:13:26;;;;;;;8.30;8.00;;;35.00;52.80;;;;;;5044545;28;20458;-56
2021/09/10 08:15:53;;;;;;;8.27;7.90;;;34.60;53.30;;;;;;5049080;28;20487;-55
2021/09/10 08:18:21;;;;;;;8.30;7.90;;;35.00;52.60;;;;;;5060775;28;20444;-55
2021/09/10 08:20:48;;;;;;;9.33;8.67;;;35.30;52.30;;;;;;5060586;28;20476;-57
2021/09/10 08:23:16;;;;;;;8.87;8.33;;;36.10;51.80;;;;;;5060154;28;20491;-56
2021/09/10 08:25:45;;;;;;;8.00;7.70;;;36.90;51.00;;;;;;5059221;28;20433;-54
2021/09/10 08:28:13;;;;;;;10.23;9.53;;;37.70;49.50;;;;;;5059909;28;20429;-54
2021/09/10 08:30:40;;;;;;;10.00;9.50;;;37.70;49.50;;;;;;5060022;28;20591;-56
2021/09/10 08:33:12;;;;;;;9.17;8.77;;;37.90;49.20;;;;;;5060013;28;20429;-57
2021/09/10 08:35:39;;;;;;;10.80;9.57;;;37.80;48.20;;;;;;5057695;28;20738;-55
2021/09/10 08:38:07;;;;;;;9.73;9.13;;;37.60;48.10;;;;;;5046263;28;20675;-56
2021/09/10 08:40:34;;;;;;;10.90;10.40;;;37.30;48.50;;;;;;5044427;28;20807;-56
2021/09/10 08:43:03;;;;;;;10.57;9.90;;;38.20;47.60;;;;;;5043957;28;20434;-57
2021/09/10 08:45:31;;;;;;;10.23;9.83;;;38.60;46.60;;;;;;5060344;28;20437;-56
2021/09/10 08:47:58;;;;;;;8.97;8.57;;;39.00;45.60;;;;;;5057596;28;20781;-54
2021/09/10 08:50:26;;;;;;;9.53;9.03;;;38.20;45.70;;;;;;5060037;28;20453;-57
2021/09/10 08:52:54;;;;;;;10.70;10.20;;;36.50;47.90;;;;;;5059220;28;20479;-58
2021/09/10 08:55:21;;;;;;;9.23;8.73;;;35.70;49.00;;;;;;5047907;28;20429;-57
2021/09/10 08:57:51;;;;;;;10.27;9.77;;;35.10;49.80;;;;;;5045291;28;20438;-56
2021/09/10 09:00:26;;;;;;;10.20;9.10;;;35.50;50.60;;;;;;5057426;28;20527;-53
2021/09/10 09:03:04;;;;;;;8.40;8.00;;;36.70;49.10;;;;;;5059681;28;20779;-51
2021/09/10 09:05:33;;;;;;;9.60;9.10;;;37.60;48.20;;;;;;5060683;28;20451;-53
2021/09/10 09:08:18;;;;;;;8.60;8.30;;;37.70;46.50;;;;;;5060071;28;20684;-53
2021/09/10 09:11:06;;;;;;;8.87;8.53;;;36.70;47.90;;;;;;5055972;28;20503;-55
2021/09/10 09:13:36;;;;;;;9.37;8.70;;;36.60;48.30;;;;;;5059628;28;20535;-55
2021/09/10 09:16:24;;;;;;;8.87;8.03;;;37.30;47.70;;;;;;5060145;28;20447;-55
2021/09/10 09:18:53;;;;;;;9.10;8.60;;;35.30;50.00;;;;;;5052501;28;20433;-57
2021/09/10 09:21:31;;;;;;;8.80;8.30;;;33.70;51.60;;;;;;5041933;28;20527;-55
2021/09/10 09:24:13;;;;;;;8.53;8.10;;;32.40;53.60;;;;;;5059078;28;20479;-57
2021/09/10 09:26:43;;;;;;;9.07;8.57;;;32.00;55.60;;;;;;5053482;28;20440;-55
2021/09/10 09:29:13;;;;;;;9.03;8.63;;;32.90;53.60;;;;;;5046971;28;20431;-54
2021/09/10 09:31:42;;;;;;;9.40;8.70;;;33.50;51.60;;;;;;5039330;28;20495;-51
2021/09/10 09:34:10;;;;;;;8.73;8.30;;;33.20;51.20;;;;;;5034182;28;20443;-55
2021/09/10 09:37:05;;;;;;;7.93;7.53;;;32.60;53.40;;;;;;5050039;28;20434;-53
2021/09/10 09:39:52;;;;;;;7.60;7.23;;;31.80;55.50;;;;;;5053432;28;20749;-52
2021/09/10 09:42:28;;;;;;;8.07;7.67;;;31.10;55.40;;;;;;5054753;28;20802;-52
2021/09/10 09:45:14;;;;;;;7.93;7.53;;;30.80;57.00;;;;;;5044035;28;20659;-51
2021/09/10 09:47:43;;;;;;;7.30;6.87;;;30.40;57.10;;;;;;5048686;28;20446;-55
2021/09/10 09:50:13;;;;;;;7.93;7.57;;;29.80;57.50;;;;;;5051355;28;20507;-54
2021/09/10 09:52:40;;;;;;;8.50;8.10;;;29.20;58.70;;;;;;5058068;28;20450;-54
2021/09/10 09:55:09;;;;;;;7.27;6.80;;;29.00;59.60;;;;;;5053823;28;20685;-55
2021/09/10 09:57:37;;;;;;;6.73;6.27;;;28.90;60.30;;;;;;5054584;28;20448;-56
2021/09/10 10:00:06;;;;;;;7.10;6.80;;;29.00;60.00;;;;;;5058870;28;20490;-57
2021/09/10 10:02:34;;;;;;;8.83;8.13;;;29.00;60.90;;;;;;5051933;28;20534;-53
2021/09/10 10:05:04;;;;;;;8.10;7.43;;;28.90;61.70;;;;;;5058487;28;20465;-53
2021/09/10 10:07:41;;;;;;;7.10;6.80;;;28.80;61.20;;;;;;5056069;28;20429;-53
2021/09/10 10:10:11;;;;;;;7.67;7.17;;;28.50;60.30;;;;;;5051963;28;20474;-52
2021/09/10 10:12:41;;;;;;;7.23;6.90;;;28.40;59.70;;;;;;5056698;28;20433;-52
2021/09/10 10:15:41;;;;;;;8.13;7.50;;;28.30;60.30;;;;;;5059047;28;20489;-52
2021/09/10 10:18:09;;;;;;;7.80;7.40;;;28.30;61.30;;;;;;5059989;28;20498;-53
2021/09/10 10:20:45;;;;;;;7.40;7.00;;;28.20;60.60;;;;;;5060892;28;20502;-51
2021/09/10 10:23:43;;;;;;;7.87;7.43;;;28.10;60.60;;;;;;5060733;28;20627;-54
2021/09/10 10:26:12;;;;;;;7.57;7.17;;;27.90;62.40;;;;;;5052827;28;20435;-55
2021/09/10 10:28:45;;;;;;;9.00;8.50;;;27.90;63.00;;;;;;5058325;28;20471;-56
2021/09/10 10:31:13;;;;;;;8.17;7.77;;;28.00;62.60;;;;;;5046947;28;20508;-55
2021/09/10 10:34:03;;;;;;;8.47;7.93;;;28.10;63.50;;;;;;5040150;28;20485;-56
2021/09/10 10:36:32;;;;;;;7.57;7.20;;;28.20;63.10;;;;;;5051373;28;20777;-52
2021/09/10 10:39:13;;;;;;;8.23;7.73;;;28.30;61.30;;;;;;5058208;28;20440;-56
2021/09/10 10:41:56;;;;;;;8.27;7.83;;;28.20;61.80;;;;;;5058650;28;20534;-52
2021/09/10 10:44:33;;;;;;;7.77;7.37;;;28.10;63.30;;;;;;5058296;28;20496;-54
2021/09/10 10:47:10;;;;;;;8.17;7.70;;;28.00;63.60;;;;;;5057907;28;20444;-52
2021/09/10 10:49:49;;;;;;;8.27;7.67;;;28.10;63.10;;;;;;5057533;28;20649;-53
2021/09/10 10:52:37;;;;;;;6.40;6.10;;;28.10;63.70;;;;;;5057660;28;20494;-55
2021/09/10 10:55:32;;;;;;;7.80;7.40;;;28.20;60.70;;;;;;5051530;28;20643;-50
2021/09/10 10:58:25;;;;;;;7.40;6.90;;;28.20;61.30;;;;;;5056546;28;20482;-55
2021/09/10 11:01:04;;;;;;;7.30;7.00;;;28.20;62.10;;;;;;5051850;28;20507;-50
2021/09/10 11:03:35;;;;;;;7.17;6.47;;;28.30;62.60;;;;;;5051335;28;20424;-54
2021/09/10 11:06:27;;;;;;;7.07;6.73;;;28.40;60.60;;;;;;5053323;28;20701;-54
2021/09/10 11:08:54;;;;;;;7.03;6.70;;;28.40;60.40;;;;;;5046641;28;20432;-55
2021/09/10 11:11:25;;;;;;;6.90;6.50;;;28.40;60.60;;;;;;5057497;28;20613;-52
2021/09/10 11:13:53;;;;;;;6.63;6.33;;;28.50;62.60;;;;;;5049750;28;20471;-53
2021/09/10 11:16:28;;;;;;;7.13;6.73;;;28.50;60.70;;;;;;5041283;28;20444;-55
2021/09/10 11:18:57;;;;;;;6.60;6.30;;;28.30;61.30;;;;;;5056897;28;20456;-54
2021/09/10 11:21:28;;;;;;;6.70;6.40;;;28.30;61.80;;;;;;5057312;28;20472;-52
2021/09/10 11:24:06;;;;;;;6.23;6.00;;;28.30;62.30;;;;;;5058587;28;20490;-52
2021/09/10 11:26:34;;;;;;;7.20;6.80;;;28.30;60.10;;;;;;5057952;28;20554;-55
2021/09/10 11:29:09;;;;;;;6.37;6.07;;;28.20;59.70;;;;;;5057980;28;20459;-55
2021/09/10 11:31:36;;;;;;;7.50;7.20;;;28.20;59.90;;;;;;5057809;28;20482;-54
2021/09/10 11:34:03;;;;;;;7.10;6.80;;;28.20;60.40;;;;;;5057523;28;20585;-54
2021/09/10 11:36:30;;;;;;;7.20;6.60;;;28.20;61.50;;;;;;5058888;28;20460;-52
2021/09/10 11:39:08;;;;;;;6.63;6.33;;;28.20;57.60;;;;;;5057506;28;20439;-52
2021/09/10 11:41:36;;;;;;;7.33;6.83;;;28.20;56.40;;;;;;5058099;28;20480;-54
2021/09/10 11:44:09;;;;;;;6.77;6.47;;;28.10;56.70;;;;;;5057021;28;20483;-57
2021/09/10 11:46:38;;;;;;;7.23;6.93;;;28.10;57.00;;;;;;5058294;28;20440;-56
2021/09/10 11:49:06;;;;;;;7.40;7.00;;;28.10;58.80;;;;;;5057416;28;20790;-53
2021/09/10 11:51:45;;;;;;;6.70;6.40;;;28.00;58.00;;;;;;5057531;28;20460;-55
2021/09/10 11:54:16;;;;;;;7.40;7.00;;;28.10;59.60;;;;;;5052745;28;20427;-56
2021/09/10 11:56:48;;;;;;;6.20;5.90;;;28.10;59.30;;;;;;5052479;28;20447;-56
2021/09/10 11:59:33;;;;;;;6.90;6.50;;;28.10;57.90;;;;;;5057958;28;20436;-53
2021/09/10 12:02:09;;;;;;;6.73;6.33;;;28.20;58.30;;;;;;5060353;28;20528;-56
2021/09/10 12:04:37;;;;;;;6.90;6.60;;;28.20;58.50;;;;;;5061765;28;20429;-55
2021/09/10 12:07:06;;;;;;;6.80;6.37;;;28.20;54.60;;;;;;5060594;28;20478;-53
2021/09/10 12:09:39;;;;;;;8.00;7.40;;;28.20;55.20;;;;;;5061346;28;20515;-57
2021/09/10 12:12:16;;;;;;;6.60;6.30;;;28.20;57.10;;;;;;5042823;28;20502;-52
2021/09/10 12:14:47;;;;;;;6.80;6.40;;;28.20;56.10;;;;;;5043478;28;20482;-56
2021/09/10 12:17:20;;;;;;;7.23;6.80;;;28.20;56.90;;;;;;5060404;28;20771;-51
2021/09/10 12:20:08;;;;;;;6.47;6.17;;;28.20;57.00;;;;;;5060759;28;20751;-53
2021/09/10 12:22:49;;;;;;;7.50;7.10;;;28.20;56.90;;;;;;5053034;28;20476;-54
2021/09/10 12:25:23;;;;;;;8.07;7.60;;;28.20;57.60;;;;;;5056482;28;20674;-56
2021/09/10 12:28:14;;;;;;;7.20;6.90;;;28.20;58.00;;;;;;5061153;28;20428;-54
2021/09/10 12:31:11;;;;;;;6.37;6.17;;;28.30;57.20;;;;;;5060591;28;20498;-54
2021/09/10 12:33:40;;;;;;;6.80;6.50;;;28.20;58.00;;;;;;5055370;28;20623;-55
2021/09/10 12:36:10;;;;;;;7.60;7.20;;;28.30;56.70;;;;;;5054508;28;20525;-55
2021/09/10 12:38:40;;;;;;;7.57;7.07;;;28.30;57.30;;;;;;5060683;28;20460;-55
2021/09/10 12:41:08;;;;;;;6.83;6.47;;;28.40;57.30;;;;;;5059098;28;20483;-55
2021/09/10 12:43:36;;;;;;;7.27;6.97;;;28.40;58.50;;;;;;5047876;28;20452;-54
2021/09/10 12:46:04;;;;;;;8.27;7.87;;;28.40;57.50;;;;;;5044702;28;20615;-55
2021/09/10 12:48:31;;;;;;;7.20;6.80;;;28.40;58.00;;;;;;5055899;28;20883;-50
2021/09/10 12:50:59;;;;;;;6.93;6.53;;;28.30;57.00;;;;;;5056864;28;20854;-56
2021/09/10 12:53:26;;;;;;;7.03;6.63;;;28.30;58.50;;;;;;5059513;28;20479;-54
2021/09/10 12:55:53;;;;;;;7.37;6.97;;;28.40;57.80;;;;;;5056316;28;20817;-57
2021/09/10 12:58:20;;;;;;;7.20;6.60;;;28.30;57.70;;;;;;5059450;28;20441;-56